createdAt,value
2023-04-03T00:00:33.733Z,103247.84
2023-04-03T00:03:00.337Z,103245.28
2023-04-03T00:05:27.272Z,103248.78
2023-04-03T00:07:53.840Z,103252.25
2023-04-03T00:10:20.576Z,103253.19
2023-04-03T00:12:47.015Z,103250.63
2023-04-03T00:15:13.564Z,103251.53
2023-04-03T00:17:40.333Z,103257.59
2023-04-03T00:20:07.473Z,103251.56
2023-04-03T00:22:33.861Z,103255.16
2023-04-03T00:25:00.312Z,103251.69
2023-04-03T00:27:26.794Z,103249.91
2023-04-03T00:29:53.181Z,103256.06
2023-04-03T00:32:19.870Z,103251.75
2023-04-03T00:34:46.409Z,103255.25
2023-04-03T00:37:12.881Z,103253.56
2023-04-03T00:39:39.264Z,103256.19
2023-04-03T00:42:06.005Z,103259.75
2023-04-03T00:44:32.300Z,103268.44
2023-04-03T00:46:58.673Z,103269.34
2023-04-03T00:49:25.270Z,103270.22
2023-04-03T00:51:52.741Z,103270.22
2023-04-03T00:54:19.396Z,103269.38
2023-04-03T00:56:46.147Z,103272.94
2023-04-03T00:59:17.708Z,103275.53
2023-04-03T01:01:44.424Z,103273.81
2023-04-03T01:04:38.455Z,103275.66
2023-04-03T01:07:11.892Z,103277.47
2023-04-03T01:09:39.182Z,103274.88
2023-04-03T01:12:23.791Z,103278.31
2023-04-03T01:14:52.787Z,103278.41
2023-04-03T01:17:33.200Z,103280.19
2023-04-03T01:20:36.951Z,103278.50
2023-04-03T01:23:13.610Z,103282.88
2023-04-03T01:25:58.617Z,103284.59
2023-04-03T01:28:31.419Z,103277.59
2023-04-03T01:31:21.006Z,103281.94
2023-04-03T01:33:48.023Z,103282.00
2023-04-03T01:36:18.283Z,103274.25
2023-04-03T01:38:44.665Z,103276.03
2023-04-03T01:41:11.146Z,103275.19
2023-04-03T01:43:37.536Z,103278.63
2023-04-03T01:46:03.941Z,103277.78
2023-04-03T01:48:30.509Z,103272.59
2023-04-03T01:50:56.957Z,103279.56
2023-04-03T01:53:23.473Z,103282.16
2023-04-03T01:55:49.822Z,103272.66
2023-04-03T01:58:16.294Z,103278.75
2023-04-03T02:00:42.697Z,103279.66
2023-04-03T02:03:09.149Z,103281.41
2023-04-03T02:05:35.601Z,103290.97
2023-04-03T02:08:02.262Z,103281.44
2023-04-03T02:10:28.654Z,103289.28
2023-04-03T02:12:55.119Z,103287.59
2023-04-03T02:15:21.647Z,103296.34
2023-04-03T02:17:48.055Z,103297.22
2023-04-03T02:20:14.487Z,103302.44
2023-04-03T02:22:41.022Z,103308.56
2023-04-03T02:25:07.879Z,103306.84
2023-04-03T02:27:34.251Z,103302.59
2023-04-03T02:30:00.618Z,103308.75
2023-04-03T02:32:27.263Z,103300.97
2023-04-03T02:34:53.802Z,103300.06
2023-04-03T02:37:20.429Z,103296.59
2023-04-03T02:39:46.825Z,103303.56
2023-04-03T02:42:13.379Z,103301.00
2023-04-03T02:44:39.865Z,103303.69
2023-04-03T02:47:06.415Z,103296.69
2023-04-03T02:49:32.795Z,103308.00
2023-04-03T02:51:59.312Z,103310.59
2023-04-03T02:54:28.723Z,103314.09
2023-04-03T02:56:55.515Z,103324.50
2023-04-03T02:59:21.965Z,103320.22
2023-04-03T03:01:48.401Z,103326.38
2023-04-03T03:04:14.774Z,103321.25
2023-04-03T03:06:42.377Z,103326.56
2023-04-03T03:09:09.925Z,103330.09
2023-04-03T03:11:36.301Z,103335.31
2023-04-03T03:14:02.908Z,103331.91
2023-04-03T03:16:29.315Z,103337.94
2023-04-03T03:18:57.310Z,103341.44
2023-04-03T03:21:24.253Z,103344.06
2023-04-03T03:23:50.613Z,103343.22
2023-04-03T03:26:16.983Z,103331.94
2023-04-03T03:28:43.309Z,103335.38
2023-04-03T03:31:11.814Z,103339.78
2023-04-03T03:33:38.283Z,103344.13
2023-04-03T03:36:05.073Z,103351.06
2023-04-03T03:38:31.519Z,103348.50
2023-04-03T03:40:57.904Z,103339.00
2023-04-03T03:43:24.274Z,103340.75
2023-04-03T03:45:53.296Z,103347.75
2023-04-03T03:48:21.297Z,103349.47
2023-04-03T03:50:48.490Z,103350.34
2023-04-03T03:53:15.807Z,103350.31
2023-04-03T03:55:42.710Z,103346.00
2023-04-03T03:58:09.101Z,103349.47
2023-04-03T04:00:35.658Z,103349.47
2023-04-03T04:03:02.196Z,103346.00
2023-04-03T04:05:28.947Z,103352.06
2023-04-03T04:07:55.442Z,103351.19
2023-04-03T04:10:21.881Z,103357.31
2023-04-03T04:12:50.092Z,103351.28
2023-04-03T04:15:16.797Z,103359.09
2023-04-03T04:17:43.198Z,103358.19
2023-04-03T04:20:10.188Z,103363.34
2023-04-03T04:22:36.548Z,103365.06
2023-04-03T04:25:03.176Z,103372.06
2023-04-03T04:27:29.499Z,103368.63
2023-04-03T04:29:57.051Z,103372.94
2023-04-03T04:32:25.341Z,103368.63
2023-04-03T04:34:51.764Z,103372.09
2023-04-03T04:37:18.180Z,103377.25
2023-04-03T04:39:44.658Z,103371.19
2023-04-03T04:42:15.032Z,103372.97
2023-04-03T04:44:43.245Z,103380.75
2023-04-03T04:47:09.625Z,103375.53
2023-04-03T04:49:36.219Z,103387.69
2023-04-03T04:52:02.712Z,103387.69
2023-04-03T04:54:29.265Z,103384.22
2023-04-03T04:56:56.052Z,103375.63
2023-04-03T04:59:22.711Z,103383.44
2023-04-03T05:01:49.105Z,103375.63
2023-04-03T05:04:16.181Z,103379.09
2023-04-03T05:06:42.602Z,103392.94
2023-04-03T05:09:09.828Z,103381.66
2023-04-03T05:11:36.989Z,103385.94
2023-04-03T05:14:06.227Z,103394.56
2023-04-03T05:16:33.647Z,103385.03
2023-04-03T05:19:00.009Z,103388.50
2023-04-03T05:21:27.112Z,103393.69
2023-04-03T05:23:53.509Z,103392.81
2023-04-03T05:26:19.842Z,103399.69
2023-04-03T05:28:46.240Z,103395.34
2023-04-03T05:31:14.157Z,103404.84
2023-04-03T05:33:40.632Z,103407.47
2023-04-03T05:36:07.758Z,103404.88
2023-04-03T05:38:34.555Z,103416.97
2023-04-03T05:41:01.043Z,103397.94
2023-04-03T05:43:27.470Z,103408.31
2023-04-03T05:45:53.898Z,103419.53
2023-04-03T05:48:20.356Z,103406.50
2023-04-03T05:50:47.993Z,103421.22
2023-04-03T05:53:22.332Z,103415.13
2023-04-03T05:55:48.793Z,103422.84
2023-04-03T05:58:15.355Z,103422.00
2023-04-03T06:00:42.002Z,103421.09
2023-04-03T06:03:08.487Z,103424.47
2023-04-03T06:05:36.225Z,103429.59
2023-04-03T06:08:03.958Z,103426.97
2023-04-03T06:10:30.706Z,103433.00
2023-04-03T06:12:57.156Z,103432.88
2023-04-03T06:15:23.820Z,103436.19
2023-04-03T06:17:50.317Z,103428.16
2023-04-03T06:20:17.118Z,103436.63
2023-04-03T06:22:43.561Z,103428.41
2023-04-03T06:25:11.130Z,103428.81
2023-04-03T06:27:37.603Z,103428.66
2023-04-03T06:30:04.382Z,103431.69
2023-04-03T06:32:30.818Z,103430.19
2023-04-03T06:34:58.138Z,103425.25
2023-04-03T06:37:26.998Z,103433.81
2023-04-03T06:39:53.581Z,103434.34
2023-04-03T06:42:20.035Z,103434.88
2023-04-03T06:44:46.458Z,103442.47
2023-04-03T06:47:14.684Z,103445.94
2023-04-03T06:49:41.213Z,103439.06
2023-04-03T06:52:08.434Z,103444.34
2023-04-03T06:54:34.955Z,103450.91
2023-04-03T06:57:01.692Z,103445.25
2023-04-03T06:59:28.213Z,103453.03
2023-04-03T07:01:54.646Z,103451.56
2023-04-03T07:04:21.550Z,103451.66
2023-04-03T07:06:48.909Z,103449.00
2023-04-03T07:09:15.997Z,103457.25
2023-04-03T07:11:42.498Z,103462.06
2023-04-03T07:14:09.157Z,103454.84
2023-04-03T07:16:36.544Z,103457.66
2023-04-03T07:19:03.981Z,103454.31
2023-04-03T07:21:30.492Z,103455.25
2023-04-03T07:23:56.884Z,103453.25
2023-04-03T07:26:23.449Z,103461.84
2023-04-03T07:28:50.798Z,103465.53
2023-04-03T07:31:19.283Z,103473.38
2023-04-03T07:33:46.843Z,103463.50
2023-04-03T07:36:18.772Z,103469.75
2023-04-03T07:38:45.861Z,103469.81
2023-04-03T07:41:16.225Z,103476.72
2023-04-03T07:43:43.221Z,103477.50
2023-04-03T07:46:10.232Z,103491.72
2023-04-03T07:48:36.774Z,103475.06
2023-04-03T07:51:04.954Z,103477.44
2023-04-03T07:53:32.146Z,103470.91
2023-04-03T07:55:59.949Z,103472.75
2023-04-03T07:58:26.816Z,103475.06
2023-04-03T08:00:53.592Z,103479.31
2023-04-03T08:03:20.105Z,103473.25
2023-04-03T08:05:49.231Z,103479.91
2023-04-03T08:08:20.051Z,103473.25
2023-04-03T08:10:55.106Z,103464.47
2023-04-03T08:13:22.760Z,103477.16
2023-04-03T08:15:49.200Z,103475.66
2023-04-03T08:18:16.996Z,103476.72
2023-04-03T08:20:44.103Z,103481.06
2023-04-03T08:23:11.231Z,103480.16
2023-04-03T08:25:41.998Z,103467.69
2023-04-03T08:28:09.718Z,103483.19
2023-04-03T08:30:36.865Z,103488.97
2023-04-03T08:33:03.905Z,103491.41
2023-04-03T08:35:30.670Z,103485.28
2023-04-03T08:37:57.534Z,103490.16
2023-04-03T08:40:24.173Z,103486.09
2023-04-03T08:43:02.462Z,103499.38
2023-04-03T08:45:52.696Z,103503.16
2023-04-03T08:48:32.049Z,103504.28
2023-04-03T08:51:03.917Z,103494.81
2023-04-03T08:53:35.057Z,103497.88
2023-04-03T08:56:09.047Z,103493.66
2023-04-03T08:59:05.352Z,103501.00
2023-04-03T09:01:39.350Z,103498.94
2023-04-03T09:04:14.928Z,103489.13
2023-04-03T09:06:47.206Z,103495.72
2023-04-03T09:09:16.378Z,103478.13
2023-04-03T09:12:06.102Z,103490.75
2023-04-03T09:14:51.319Z,103492.09
2023-04-03T09:17:46.316Z,103486.63
2023-04-03T09:20:20.673Z,103488.94
2023-04-03T09:22:52.087Z,103494.75
2023-04-03T09:25:33.689Z,103483.84
2023-04-03T09:28:04.521Z,103488.00
2023-04-03T09:30:31.330Z,103492.25
2023-04-03T09:32:58.273Z,103492.72
2023-04-03T09:35:40.501Z,103491.03
2023-04-03T09:38:14.054Z,103479.28
2023-04-03T09:40:46.619Z,103476.81
2023-04-03T09:43:29.960Z,103466.91
2023-04-03T09:46:17.582Z,103483.59
2023-04-03T09:49:08.169Z,103461.84
2023-04-03T09:51:36.709Z,103469.19
2023-04-03T09:54:31.169Z,103465.03
2023-04-03T09:57:02.266Z,103475.22
2023-04-03T09:59:28.833Z,103459.50
2023-04-03T10:02:22.006Z,103455.00
2023-04-03T10:04:53.080Z,103454.16
2023-04-03T10:07:35.032Z,103442.59
2023-04-03T10:10:18.746Z,103443.03
2023-04-03T10:12:45.544Z,103432.28
2023-04-03T10:15:14.836Z,103433.09
2023-04-03T10:17:41.442Z,103434.81
2023-04-03T10:20:24.295Z,103437.88
2023-04-03T10:23:11.035Z,103424.78
2023-04-03T10:26:19.322Z,103426.59
2023-04-03T10:29:20.865Z,103416.59
2023-04-03T10:31:56.944Z,103432.28
2023-04-03T10:34:39.244Z,103412.09
2023-04-03T10:37:17.521Z,103412.34
2023-04-03T10:39:59.982Z,103399.16
2023-04-03T10:42:40.766Z,103398.06
2023-04-03T10:45:22.273Z,103401.41
2023-04-03T10:48:08.105Z,103385.28
2023-04-03T10:51:04.465Z,103395.25
2023-04-03T10:53:45.665Z,103391.06
2023-04-03T10:56:30.844Z,103395.09
2023-04-03T10:59:31.660Z,103389.31
2023-04-03T11:02:03.169Z,103374.31
2023-04-03T11:04:35.585Z,103389.22
2023-04-03T11:07:13.457Z,103378.44
2023-04-03T11:09:47.400Z,103375.94
2023-04-03T11:12:19.739Z,103380.28
2023-04-03T11:14:48.644Z,103353.97
2023-04-03T11:17:24.308Z,103377.97
2023-04-03T11:20:07.976Z,103364.78
2023-04-03T11:22:43.337Z,103378.66
2023-04-03T11:25:12.649Z,103368.56
2023-04-03T11:28:03.311Z,103367.41
2023-04-03T11:30:39.402Z,103369.78
2023-04-03T11:33:33.585Z,103375.25
2023-04-03T11:36:19.094Z,103378.06
2023-04-03T11:38:56.221Z,103379.78
2023-04-03T11:41:28.872Z,103379.75
2023-04-03T11:44:02.754Z,103362.75
2023-04-03T11:46:54.857Z,103369.88
2023-04-03T11:49:54.601Z,103365.63
2023-04-03T11:52:40.982Z,103363.94
2023-04-03T11:55:24.039Z,103374.78
2023-04-03T11:57:59.413Z,103365.09
2023-04-03T12:00:44.877Z,103356.31
2023-04-03T12:03:27.420Z,103361.94
2023-04-03T12:06:14.498Z,103354.34
2023-04-03T12:08:41.276Z,103349.78
2023-04-03T12:11:13.352Z,103349.53
2023-04-03T12:13:54.988Z,103332.97
2023-04-03T12:16:52.845Z,103327.66
2023-04-03T12:19:26.630Z,103332.16
2023-04-03T12:21:59.457Z,103327.22
2023-04-03T12:24:50.217Z,103341.69
2023-04-03T12:27:24.098Z,103327.78
2023-04-03T12:30:23.534Z,103323.41
2023-04-03T12:33:12.677Z,103309.50
2023-04-03T12:35:55.414Z,103304.66
2023-04-03T12:38:45.830Z,103315.44
2023-04-03T12:41:40.704Z,103323.91
2023-04-03T12:44:09.813Z,103316.78
2023-04-03T12:46:49.274Z,103308.13
2023-04-03T12:49:23.823Z,103304.09
2023-04-03T12:51:50.525Z,103310.28
2023-04-03T12:54:40.799Z,103298.81
2023-04-03T12:57:18.863Z,103288.97
2023-04-03T12:59:47.523Z,103283.41
2023-04-03T13:02:22.199Z,103277.47
2023-04-03T13:04:50.442Z,103284.44
2023-04-03T13:07:22.473Z,103280.41
2023-04-03T13:09:57.318Z,103292.66
2023-04-03T13:12:23.760Z,103285.56
2023-04-03T13:14:59.107Z,103279.34
2023-04-03T13:17:28.463Z,103276.72
2023-04-03T13:19:56.409Z,103276.72
2023-04-03T13:22:40.291Z,103268.97
2023-04-03T13:25:10.353Z,103256.19
2023-04-03T13:27:40.204Z,103257.19
2023-04-03T13:30:07.640Z,103263.06
2023-04-03T13:32:34.198Z,103261.06
2023-04-03T13:35:15.538Z,103263.19
2023-04-03T13:37:56.283Z,103253.84
2023-04-03T13:40:23.315Z,103265.19
2023-04-03T13:43:04.237Z,103265.03
2023-04-03T13:45:32.595Z,103271.25
2023-04-03T13:48:22.034Z,103265.91
2023-04-03T13:50:59.624Z,103271.03
2023-04-03T13:53:28.207Z,103268.53
2023-04-03T13:55:59.901Z,103260.75
2023-04-03T13:58:28.705Z,103256.09
2023-04-03T14:01:08.644Z,103262.88
2023-04-03T14:03:46.309Z,103269.06
2023-04-03T14:06:16.434Z,103249.66
2023-04-03T14:08:44.064Z,103256.06
2023-04-03T14:11:19.884Z,103260.50
2023-04-03T14:13:47.474Z,103251.66
2023-04-03T14:16:20.214Z,103251.50
2023-04-03T14:18:48.381Z,103237.81
2023-04-03T14:21:17.371Z,103231.41
2023-04-03T14:23:44.517Z,103228.56
2023-04-03T14:26:18.589Z,103221.44
2023-04-03T14:28:47.325Z,103229.28
2023-04-03T14:31:14.639Z,103218.59
2023-04-03T14:33:41.555Z,103225.13
2023-04-03T14:36:17.130Z,103219.56
2023-04-03T14:38:45.624Z,103202.88
2023-04-03T14:41:16.842Z,103204.03
2023-04-03T14:43:45.348Z,103215.59
2023-04-03T14:46:15.770Z,103206.72
2023-04-03T14:48:42.815Z,103212.94
2023-04-03T14:51:12.751Z,103207.13
2023-04-03T14:53:40.118Z,103207.31
2023-04-03T14:56:23.669Z,103199.66
2023-04-03T14:58:54.833Z,103199.84
2023-04-03T15:01:21.272Z,103196.88
2023-04-03T15:03:47.890Z,103200.50
2023-04-03T15:06:15.570Z,103196.78
2023-04-03T15:08:43.261Z,103210.78
2023-04-03T15:11:11.244Z,103204.94
2023-04-03T15:13:38.961Z,103200.22
2023-04-03T15:16:17.479Z,103202.06
2023-04-03T15:18:44.752Z,103211.34
2023-04-03T15:21:11.756Z,103222.31
2023-04-03T15:23:38.068Z,103205.59
2023-04-03T15:26:04.994Z,103207.75
2023-04-03T15:28:36.280Z,103216.38
2023-04-03T15:31:03.962Z,103208.69
2023-04-03T15:33:30.830Z,103217.59
2023-04-03T15:36:06.573Z,103217.59
2023-04-03T15:38:33.839Z,103217.31
2023-04-03T15:41:00.658Z,103222.56
2023-04-03T15:43:27.359Z,103228.13
2023-04-03T15:45:57.845Z,103219.81
2023-04-03T15:48:24.401Z,103211.72
2023-04-03T15:50:50.885Z,103208.44
2023-04-03T15:53:17.295Z,103214.81
2023-04-03T15:55:43.642Z,103205.06
2023-04-03T15:58:10.131Z,103207.13
2023-04-03T16:00:37.238Z,103216.69
2023-04-03T16:03:11.080Z,103207.44
2023-04-03T16:05:39.130Z,103203.88
2023-04-03T16:08:06.278Z,103205.72
2023-04-03T16:10:32.702Z,103206.28
2023-04-03T16:12:59.095Z,103213.91
2023-04-03T16:15:27.241Z,103219.34
2023-04-03T16:17:54.566Z,103209.84
2023-04-03T16:20:22.536Z,103219.59
2023-04-03T16:22:49.852Z,103213.84
2023-04-03T16:25:16.466Z,103209.56
2023-04-03T16:27:42.802Z,103213.84
2023-04-03T16:30:09.932Z,103211.28
2023-04-03T16:32:37.704Z,103213.97
2023-04-03T16:35:04.843Z,103218.38
2023-04-03T16:37:32.681Z,103214.94
2023-04-03T16:39:59.586Z,103214.22
2023-04-03T16:42:26.393Z,103211.78
2023-04-03T16:44:52.789Z,103211.91
2023-04-03T16:47:20.704Z,103220.97
2023-04-03T16:49:48.027Z,103214.25
2023-04-03T16:52:14.958Z,103209.25
2023-04-03T16:54:41.513Z,103210.97
2023-04-03T16:57:08.026Z,103213.66
2023-04-03T16:59:34.422Z,103208.44
2023-04-03T17:02:00.776Z,103211.31
2023-04-03T17:04:27.397Z,103216.81
2023-04-03T17:06:54.018Z,103211.84
2023-04-03T17:09:21.573Z,103209.47
2023-04-03T17:11:49.266Z,103203.53
2023-04-03T17:14:15.938Z,103204.63
2023-04-03T17:16:42.681Z,103210.84
2023-04-03T17:19:09.330Z,103208.47
2023-04-03T17:21:36.739Z,103214.03
2023-04-03T17:24:09.210Z,103214.13
2023-04-03T17:26:37.444Z,103209.19
2023-04-03T17:29:04.607Z,103219.13
2023-04-03T17:31:31.298Z,103208.84
2023-04-03T17:33:57.852Z,103207.13
2023-04-03T17:36:24.640Z,103210.91
2023-04-03T17:38:51.942Z,103215.63
2023-04-03T17:41:18.402Z,103215.13
2023-04-03T17:43:44.748Z,103224.00
2023-04-03T17:46:11.783Z,103217.38
2023-04-03T17:48:40.969Z,103223.72
2023-04-03T17:51:10.279Z,103217.00
2023-04-03T17:53:36.795Z,103223.38
2023-04-03T17:56:14.745Z,103224.50
2023-04-03T17:58:42.056Z,103224.63
2023-04-03T18:01:14.504Z,103221.50
2023-04-03T18:03:41.921Z,103229.59
2023-04-03T18:06:15.074Z,103225.53
2023-04-03T18:08:46.034Z,103237.25
2023-04-03T18:11:14.195Z,103237.56
2023-04-03T18:13:40.795Z,103237.84
2023-04-03T18:16:09.390Z,103237.94
2023-04-03T18:18:36.135Z,103236.41
2023-04-03T18:21:02.812Z,103246.22
2023-04-03T18:23:32.549Z,103240.31
2023-04-03T18:26:01.216Z,103240.56
2023-04-03T18:28:29.525Z,103230.19
2023-04-03T18:30:55.908Z,103235.63
2023-04-03T18:33:22.247Z,103235.56
2023-04-03T18:35:49.370Z,103238.38
2023-04-03T18:38:15.955Z,103237.88
2023-04-03T18:40:42.663Z,103244.91
2023-04-03T18:43:09.276Z,103240.66
2023-04-03T18:45:35.674Z,103245.19
2023-04-03T18:48:02.258Z,103248.88
2023-04-03T18:50:29.337Z,103249.03
2023-04-03T18:52:55.669Z,103251.03
2023-04-03T18:55:22.185Z,103243.38
2023-04-03T18:57:49.488Z,103248.09
2023-04-03T19:00:18.182Z,103250.13
2023-04-03T19:02:45.894Z,103247.69
2023-04-03T19:05:14.618Z,103241.78
2023-04-03T19:07:44.648Z,103238.38
2023-04-03T19:10:17.123Z,103236.56
2023-04-03T19:12:45.263Z,103245.47
2023-04-03T19:15:16.069Z,103250.13
2023-04-03T19:17:42.727Z,103245.22
2023-04-03T19:20:10.831Z,103251.34
2023-04-03T19:22:37.571Z,103259.53
2023-04-03T19:25:09.805Z,103252.91
2023-04-03T19:27:37.239Z,103266.16
2023-04-03T19:30:04.894Z,103262.56
2023-04-03T19:32:31.344Z,103260.78
2023-04-03T19:34:59.043Z,103256.31
2023-04-03T19:37:26.946Z,103256.25
2023-04-03T19:39:54.164Z,103252.88
2023-04-03T19:42:21.261Z,103259.25
2023-04-03T19:44:48.601Z,103249.09
2023-04-03T19:47:16.428Z,103253.59
2023-04-03T19:49:43.004Z,103241.56
2023-04-03T19:52:09.365Z,103247.84
2023-04-03T19:54:35.947Z,103246.41
2023-04-03T19:57:02.439Z,103246.75
2023-04-03T19:59:29.191Z,103248.59
2023-04-03T20:01:56.013Z,103254.00
2023-04-03T20:04:22.432Z,103262.66
2023-04-03T20:06:50.401Z,103256.59
2023-04-03T20:09:18.218Z,103261.16
2023-04-03T20:11:47.960Z,103259.53
2023-04-03T20:14:16.434Z,103256.06
2023-04-03T20:16:43.712Z,103261.41
2023-04-03T20:19:10.483Z,103263.25
2023-04-03T20:21:37.130Z,103263.34
2023-04-03T20:24:06.595Z,103275.78
2023-04-03T20:26:37.280Z,103272.47
2023-04-03T20:29:04.234Z,103263.84
2023-04-03T20:31:31.594Z,103259.47
2023-04-03T20:33:58.153Z,103267.53
2023-04-03T20:36:26.536Z,103276.34
2023-04-03T20:38:53.077Z,103274.66
2023-04-03T20:41:20.172Z,103279.06
2023-04-03T20:43:47.747Z,103273.94
2023-04-03T20:46:14.572Z,103267.94
2023-04-03T20:48:41.456Z,103262.72
2023-04-03T20:51:13.081Z,103265.25
2023-04-03T20:53:40.268Z,103266.09
2023-04-03T20:56:08.862Z,103254.88
2023-04-03T20:58:38.870Z,103266.22
2023-04-03T21:01:21.224Z,103247.22
2023-04-03T21:03:49.716Z,103250.72
2023-04-03T21:06:55.311Z,103253.47
2023-04-03T21:09:59.392Z,103249.31
2023-04-03T21:13:03.416Z,103252.97
2023-04-03T21:15:59.795Z,103258.09
2023-04-03T21:18:41.989Z,103257.09
2023-04-03T21:21:18.713Z,103265.84
2023-04-03T21:23:47.731Z,103270.19
2023-04-03T21:26:14.822Z,103262.13
2023-04-03T21:28:42.589Z,103268.06
2023-04-03T21:31:11.536Z,103262.78
2023-04-03T21:33:38.359Z,103271.47
2023-04-03T21:36:04.935Z,103266.31
2023-04-03T21:38:32.355Z,103268.06
2023-04-03T21:41:00.437Z,103267.22
2023-04-03T21:43:27.072Z,103268.38
2023-04-03T21:45:55.246Z,103270.31
2023-04-03T21:48:23.146Z,103272.00
2023-04-03T21:50:52.493Z,103270.13
2023-04-03T21:53:22.556Z,103262.47
2023-04-03T21:55:57.330Z,103250.53
2023-04-03T21:58:30.950Z,103265.38
2023-04-03T22:00:58.424Z,103266.28
2023-04-03T22:03:25.131Z,103257.63
2023-04-03T22:05:51.756Z,103254.84
2023-04-03T22:08:18.529Z,103255.75
2023-04-03T22:10:45.050Z,103260.00
2023-04-03T22:13:11.569Z,103253.91
2023-04-03T22:15:43.839Z,103253.06
2023-04-03T22:18:10.965Z,103255.75
2023-04-03T22:20:37.384Z,103241.91
2023-04-03T22:23:04.506Z,103237.47
2023-04-03T22:25:30.986Z,103238.38
2023-04-03T22:27:57.479Z,103234.25
2023-04-03T22:30:24.045Z,103238.50
2023-04-03T22:32:50.508Z,103228.06
2023-04-03T22:35:16.907Z,103236.06
2023-04-03T22:37:43.327Z,103234.38
2023-04-03T22:40:10.745Z,103232.75
2023-04-03T22:42:37.132Z,103238.72
2023-04-03T22:45:04.394Z,103225.56
2023-04-03T22:47:31.115Z,103223.72
2023-04-03T22:49:57.837Z,103234.22
2023-04-03T22:52:24.187Z,103229.88
2023-04-03T22:54:50.535Z,103230.69
2023-04-03T22:57:16.893Z,103233.34
2023-04-03T22:59:43.255Z,103223.91
2023-04-03T23:02:09.589Z,103218.66
2023-04-03T23:04:36.363Z,103229.00
2023-04-03T23:07:03.034Z,103232.50
2023-04-03T23:09:29.541Z,103239.47
2023-04-03T23:11:55.928Z,103229.03
2023-04-03T23:14:22.615Z,103225.63
2023-04-03T23:16:49.079Z,103236.78
2023-04-03T23:19:15.484Z,103228.09
2023-04-03T23:21:42.027Z,103237.56
2023-04-03T23:24:08.452Z,103234.84
2023-04-03T23:26:34.860Z,103253.94
2023-04-03T23:29:01.360Z,103249.69
2023-04-03T23:31:27.898Z,103253.16
2023-04-03T23:33:54.331Z,103250.59
2023-04-03T23:36:21.044Z,103255.03
2023-04-03T23:38:47.512Z,103255.00
2023-04-03T23:41:13.938Z,103256.75
2023-04-03T23:43:41.462Z,103251.66
2023-04-03T23:46:08.036Z,103249.94
2023-04-03T23:48:34.466Z,103250.84
2023-04-03T23:51:00.865Z,103260.47
2023-04-03T23:53:28.193Z,103259.63
2023-04-03T23:55:54.575Z,103261.41
2023-04-03T23:58:21.125Z,103258.84
